sensor_id;sensor_type;location;lat;lon;timestamp;pressure;altitude;pressure_sealevel;temperature;humidity
8523;BME280;4299;42.202;24.736;2022-09-02T00:00:20;99228.56;;;22.98;nan
8523;BME280;4299;42.202;24.736;2022-09-02T00:02:48;99227.41;;;22.92;nan
8523;BME280;4299;42.202;24.736;2022-09-02T00:05:15;99226.88;;;22.88;nan
8523;BME280;4299;42.202;24.736;2022-09-02T00:07:42;99225.03;;;22.81;nan
8523;BME280;4299;42.202;24.736;2022-09-02T00:10:09;99225.19;;;22.79;nan
8523;BME280;4299;42.202;24.736;2022-09-02T00:12:36;99227.59;;;22.82;nan
8523;BME280;4299;42.202;24.736;2022-09-02T00:15:03;99220.63;;;22.88;nan
8523;BME280;4299;42.202;24.736;2022-09-02T00:17:31;99225.88;;;22.98;nan
8523;BME280;4299;42.202;24.736;2022-09-02T00:19:58;99226.19;;;23.03;nan
8523;BME280;4299;42.202;24.736;2022-09-02T00:22:25;99219.78;;;23.04;nan
8523;BME280;4299;42.202;24.736;2022-09-02T00:24:52;99214.53;;;23.10;nan
8523;BME280;4299;42.202;24.736;2022-09-02T00:27:19;99218.75;;;23.13;nan
8523;BME280;4299;42.202;24.736;2022-09-02T00:29:46;99216.38;;;23.18;nan
8523;BME280;4299;42.202;24.736;2022-09-02T00:32:12;99226.47;;;23.24;nan
8523;BME280;4299;42.202;24.736;2022-09-02T00:34:40;99214.28;;;23.36;nan
8523;BME280;4299;42.202;24.736;2022-09-02T00:37:07;99216.00;;;23.37;nan
8523;BME280;4299;42.202;24.736;2022-09-02T00:39:34;99222.72;;;23.41;nan
8523;BME280;4299;42.202;24.736;2022-09-02T00:42:02;99217.81;;;23.45;nan
8523;BME280;4299;42.202;24.736;2022-09-02T00:44:30;99218.63;;;23.45;nan
8523;BME280;4299;42.202;24.736;2022-09-02T00:46:58;99211.06;;;23.49;nan
8523;BME280;4299;42.202;24.736;2022-09-02T00:49:27;99212.59;;;23.51;nan
8523;BME280;4299;42.202;24.736;2022-09-02T00:52:00;99217.63;;;23.54;nan
8523;BME280;4299;42.202;24.736;2022-09-02T00:54:30;99210.53;;;23.53;nan
8523;BME280;4299;42.202;24.736;2022-09-02T00:56:59;99208.50;;;23.55;nan
8523;BME280;4299;42.202;24.736;2022-09-02T00:59:33;99218.31;;;23.56;nan
8523;BME280;4299;42.202;24.736;2022-09-02T01:02:04;99215.09;;;23.53;nan
8523;BME280;4299;42.202;24.736;2022-09-02T01:04:31;99213.91;;;23.55;nan
8523;BME280;4299;42.202;24.736;2022-09-02T01:07:01;99215.91;;;23.61;nan
8523;BME280;4299;42.202;24.736;2022-09-02T01:09:28;99218.63;;;23.61;nan
8523;BME280;4299;42.202;24.736;2022-09-02T01:11:56;99213.19;;;23.61;nan
8523;BME280;4299;42.202;24.736;2022-09-02T01:14:24;99219.97;;;23.65;nan
8523;BME280;4299;42.202;24.736;2022-09-02T01:16:54;99215.53;;;23.73;nan
8523;BME280;4299;42.202;24.736;2022-09-02T01:19:23;99213.84;;;23.72;nan
8523;BME280;4299;42.202;24.736;2022-09-02T01:21:53;99220.09;;;23.72;nan
8523;BME280;4299;42.202;24.736;2022-09-02T01:24:21;99208.44;;;23.72;nan
8523;BME280;4299;42.202;24.736;2022-09-02T01:26:51;99210.47;;;23.70;nan
8523;BME280;4299;42.202;24.736;2022-09-02T01:29:19;99208.13;;;23.66;nan
8523;BME280;4299;42.202;24.736;2022-09-02T01:31:46;99209.47;;;23.62;nan
8523;BME280;4299;42.202;24.736;2022-09-02T01:34:13;99214.56;;;23.65;nan
8523;BME280;4299;42.202;24.736;2022-09-02T01:36:42;99219.59;;;23.68;nan
8523;BME280;4299;42.202;24.736;2022-09-02T01:39:10;99211.16;;;23.63;nan
8523;BME280;4299;42.202;24.736;2022-09-02T01:41:37;99215.19;;;23.67;nan
8523;BME280;4299;42.202;24.736;2022-09-02T01:44:05;99212.50;;;23.67;nan
8523;BME280;4299;42.202;24.736;2022-09-02T01:46:32;99207.09;;;23.67;nan
8523;BME280;4299;42.202;24.736;2022-09-02T01:48:59;99220.31;;;23.62;nan
8523;BME280;4299;42.202;24.736;2022-09-02T01:51:26;99209.84;;;23.59;nan
8523;BME280;4299;42.202;24.736;2022-09-02T01:53:53;99210.66;;;23.60;nan
8523;BME280;4299;42.202;24.736;2022-09-02T01:56:21;99210.47;;;23.70;nan
8523;BME280;4299;42.202;24.736;2022-09-02T01:58:48;99206.75;;;23.71;nan
8523;BME280;4299;42.202;24.736;2022-09-02T02:01:14;99217.22;;;23.74;nan
8523;BME280;4299;42.202;24.736;2022-09-02T02:03:41;99208.06;;;23.75;nan
8523;BME280;4299;42.202;24.736;2022-09-02T02:06:11;99207.72;;;23.78;nan
8523;BME280;4299;42.202;24.736;2022-09-02T02:08:39;99217.22;;;23.74;nan
8523;BME280;4299;42.202;24.736;2022-09-02T02:11:08;99210.97;;;23.73;nan
8523;BME280;4299;42.202;24.736;2022-09-02T02:13:37;99214.31;;;23.75;nan
8523;BME280;4299;42.202;24.736;2022-09-02T02:16:03;99212.69;;;23.66;nan
8523;BME280;4299;42.202;24.736;2022-09-02T02:18:30;99208.16;;;23.58;nan
8523;BME280;4299;42.202;24.736;2022-09-02T02:20:57;99214.91;;;23.62;nan
8523;BME280;4299;42.202;24.736;2022-09-02T02:23:23;99216.59;;;23.63;nan
8523;BME280;4299;42.202;24.736;2022-09-02T02:25:50;99216.72;;;23.70;nan
8523;BME280;4299;42.202;24.736;2022-09-02T02:28:17;99210.13;;;23.73;nan
8523;BME280;4299;42.202;24.736;2022-09-02T02:30:45;99207.38;;;23.81;nan
8523;BME280;4299;42.202;24.736;2022-09-02T02:33:12;99200.63;;;23.77;nan
8523;BME280;4299;42.202;24.736;2022-09-02T02:35:39;99200.63;;;23.77;nan
8523;BME280;4299;42.202;24.736;2022-09-02T02:38:06;99196.56;;;23.81;nan
8523;BME280;4299;42.202;24.736;2022-09-02T02:40:35;99194.69;;;23.81;nan
8523;BME280;4299;42.202;24.736;2022-09-02T02:43:02;99196.56;;;23.81;nan
8523;BME280;4299;42.202;24.736;2022-09-02T02:45:29;99189.78;;;23.77;nan
8523;BME280;4299;42.202;24.736;2022-09-02T02:47:57;99187.75;;;23.79;nan
8523;BME280;4299;42.202;24.736;2022-09-02T02:50:24;99187.13;;;23.68;nan
8523;BME280;4299;42.202;24.736;2022-09-02T02:52:51;99185.50;;;23.59;nan
8523;BME280;4299;42.202;24.736;2022-09-02T02:55:20;99180.13;;;23.51;nan
8523;BME280;4299;42.202;24.736;2022-09-02T02:57:47;99190.25;;;23.41;nan
8523;BME280;4299;42.202;24.736;2022-09-02T03:00:16;99181.47;;;23.39;nan
8523;BME280;4299;42.202;24.736;2022-09-02T03:02:43;99187.94;;;23.30;nan
8523;BME280;4299;42.202;24.736;2022-09-02T03:05:13;99180.47;;;23.32;nan
8523;BME280;4299;42.202;24.736;2022-09-02T03:07:40;99175.78;;;23.26;nan
8523;BME280;4299;42.202;24.736;2022-09-02T03:10:09;99184.03;;;23.33;nan
8523;BME280;4299;42.202;24.736;2022-09-02T03:12:37;99194.34;;;23.37;nan
8523;BME280;4299;42.202;24.736;2022-09-02T03:15:05;99189.94;;;23.44;nan
8523;BME280;4299;42.202;24.736;2022-09-02T03:17:32;99187.38;;;23.43;nan
8523;BME280;4299;42.202;24.736;2022-09-02T03:19:59;99192.25;;;23.47;nan
8523;BME280;4299;42.202;24.736;2022-09-02T03:22:27;99185.88;;;23.48;nan
8523;BME280;4299;42.202;24.736;2022-09-02T03:24:54;99182.44;;;23.46;nan
8523;BME280;4299;42.202;24.736;2022-09-02T03:27:21;99193.47;;;23.45;nan
8523;BME280;4299;42.202;24.736;2022-09-02T03:29:48;99192.81;;;23.43;nan
8523;BME280;4299;42.202;24.736;2022-09-02T03:32:14;99197.38;;;23.42;nan
8523;BME280;4299;42.202;24.736;2022-09-02T03:34:41;99188.56;;;23.40;nan
8523;BME280;4299;42.202;24.736;2022-09-02T03:37:08;99185.19;;;23.38;nan
8523;BME280;4299;42.202;24.736;2022-09-02T03:39:36;99190.97;;;23.35;nan
8523;BME280;4299;42.202;24.736;2022-09-02T03:42:05;99197.06;;;23.29;nan
8523;BME280;4299;42.202;24.736;2022-09-02T03:44:32;99190.31;;;23.25;nan
8523;BME280;4299;42.202;24.736;2022-09-02T03:46:59;99197.41;;;23.26;nan
8523;BME280;4299;42.202;24.736;2022-09-02T03:49:26;99201.97;;;23.25;nan
8523;BME280;4299;42.202;24.736;2022-09-02T03:51:53;99206.03;;;23.29;nan
8523;BME280;4299;42.202;24.736;2022-09-02T03:54:20;99201.78;;;23.35;nan
8523;BME280;4299;42.202;24.736;2022-09-02T03:56:48;99200.75;;;23.44;nan
8523;BME280;4299;42.202;24.736;2022-09-02T03:59:15;99207.50;;;23.48;nan
8523;BME280;4299;42.202;24.736;2022-09-02T04:01:42;99205.13;;;23.53;nan
8523;BME280;4299;42.202;24.736;2022-09-02T04:04:09;99204.44;;;23.59;nan
8523;BME280;4299;42.202;24.736;2022-09-02T04:06:36;99213.38;;;23.60;nan
8523;BME280;4299;42.202;24.736;2022-09-02T04:09:03;99209.47;;;23.62;nan
8523;BME280;4299;42.202;24.736;2022-09-02T04:11:30;99214.03;;;23.62;nan
8523;BME280;4299;42.202;24.736;2022-09-02T04:13:58;99222.97;;;23.71;nan
8523;BME280;4299;42.202;24.736;2022-09-02T04:16:25;99213.84;;;23.72;nan
8523;BME280;4299;42.202;24.736;2022-09-02T04:18:53;99221.13;;;23.71;nan
8523;BME280;4299;42.202;24.736;2022-09-02T04:21:20;99217.44;;;23.64;nan
8523;BME280;4299;42.202;24.736;2022-09-02T04:23:47;99219.28;;;23.63;nan
8523;BME280;4299;42.202;24.736;2022-09-02T04:26:16;99219.28;;;23.63;nan
8523;BME280;4299;42.202;24.736;2022-09-02T04:28:43;99223.31;;;23.67;nan
8523;BME280;4299;42.202;24.736;2022-09-02T04:31:13;99239.72;;;23.74;nan
8523;BME280;4299;42.202;24.736;2022-09-02T04:33:40;99234.47;;;23.73;nan
8523;BME280;4299;42.202;24.736;2022-09-02T04:36:08;99234.06;;;23.84;nan
8523;BME280;4299;42.202;24.736;2022-09-02T04:38:36;99235.06;;;23.91;nan
8523;BME280;4299;42.202;24.736;2022-09-02T04:41:05;99236.28;;;24.11;nan
8523;BME280;4299;42.202;24.736;2022-09-02T04:43:35;99243.03;;;24.23;nan
8523;BME280;4299;42.202;24.736;2022-09-02T04:46:03;99254.78;;;24.38;nan
8523;BME280;4299;42.202;24.736;2022-09-02T04:48:32;99252.31;;;24.52;nan
8523;BME280;4299;42.202;24.736;2022-09-02T04:51:03;99247.91;;;24.51;nan
8523;BME280;4299;42.202;24.736;2022-09-02T04:53:30;99247.56;;;24.54;nan
8523;BME280;4299;42.202;24.736;2022-09-02T04:55:57;99265.44;;;24.63;nan
8523;BME280;4299;42.202;24.736;2022-09-02T04:58:25;99264.66;;;24.77;nan
8523;BME280;4299;42.202;24.736;2022-09-02T05:00:53;99263.22;;;24.89;nan
8523;BME280;4299;42.202;24.736;2022-09-02T05:03:20;99267.56;;;24.98;nan
8523;BME280;4299;42.202;24.736;2022-09-02T05:05:58;99269.22;;;24.99;nan
8523;BME280;4299;42.202;24.736;2022-09-02T05:08:26;99267.56;;;24.98;nan
8523;BME280;4299;42.202;24.736;2022-09-02T05:10:52;99262.81;;;25.15;nan
8523;BME280;4299;42.202;24.736;2022-09-02T05:13:19;99267.81;;;25.41;nan
8523;BME280;4299;42.202;24.736;2022-09-02T05:15:47;99269.59;;;25.48;nan
8523;BME280;4299;42.202;24.736;2022-09-02T05:18:14;99253.41;;;25.55;nan
8523;BME280;4299;42.202;24.736;2022-09-02T05:20:41;99262.78;;;25.67;nan
8523;BME280;4299;42.202;24.736;2022-09-02T05:23:10;99261.75;;;25.83;nan
8523;BME280;4299;42.202;24.736;2022-09-02T05:25:37;99267.63;;;25.86;nan
8523;BME280;4299;42.202;24.736;2022-09-02T05:28:04;99263.16;;;25.93;nan
8523;BME280;4299;42.202;24.736;2022-09-02T05:30:33;99267.25;;;25.89;nan
8523;BME280;4299;42.202;24.736;2022-09-02T05:33:00;99270.66;;;25.91;nan
8523;BME280;4299;42.202;24.736;2022-09-02T05:35:27;99271.50;;;25.92;nan
8523;BME280;4299;42.202;24.736;2022-09-02T05:37:54;99264.19;;;25.92;nan
8523;BME280;4299;42.202;24.736;2022-09-02T05:40:22;99264.44;;;25.97;nan
8523;BME280;4299;42.202;24.736;2022-09-02T05:42:49;99264.81;;;25.94;nan
8523;BME280;4299;42.202;24.736;2022-09-02T05:45:16;99267.44;;;26.03;nan
8523;BME280;4299;42.202;24.736;2022-09-02T05:47:42;99266.66;;;26.09;nan
8523;BME280;4299;42.202;24.736;2022-09-02T05:50:09;99271.72;;;26.12;nan
8523;BME280;4299;42.202;24.736;2022-09-02T05:52:36;99275.31;;;25.97;nan
8523;BME280;4299;42.202;24.736;2022-09-02T05:55:03;99275.75;;;26.01;nan
8523;BME280;4299;42.202;24.736;2022-09-02T05:57:32;99276.59;;;26.02;nan
8523;BME280;4299;42.202;24.736;2022-09-02T05:59:58;99281.88;;;25.88;nan
8523;BME280;4299;42.202;24.736;2022-09-02T06:02:25;99286.78;;;25.78;nan
8523;BME280;4299;42.202;24.736;2022-09-02T06:04:53;99272.91;;;25.73;nan
8523;BME280;4299;42.202;24.736;2022-09-02T06:07:21;99276.84;;;25.85;nan
8523;BME280;4299;42.202;24.736;2022-09-02T06:09:49;99275.97;;;26.00;nan
8523;BME280;4299;42.202;24.736;2022-09-02T06:12:17;99275.09;;;26.14;nan
8523;BME280;4299;42.202;24.736;2022-09-02T06:14:47;99278.06;;;26.19;nan
8523;BME280;4299;42.202;24.736;2022-09-02T06:17:14;99274.53;;;26.04;nan
8523;BME280;4299;42.202;24.736;2022-09-02T06:19:41;99284.28;;;26.13;nan
8523;BME280;4299;42.202;24.736;2022-09-02T06:22:08;99281.47;;;26.21;nan
8523;BME280;4299;42.202;24.736;2022-09-02T06:24:35;99284.81;;;26.23;nan
8523;BME280;4299;42.202;24.736;2022-09-02T06:27:01;99283.25;;;26.28;nan
8523;BME280;4299;42.202;24.736;2022-09-02T06:29:28;99278.25;;;26.32;nan
8523;BME280;4299;42.202;24.736;2022-09-02T06:31:57;99280.34;;;26.30;nan
8523;BME280;4299;42.202;24.736;2022-09-02T06:34:24;99283.44;;;26.27;nan
8523;BME280;4299;42.202;24.736;2022-09-02T06:36:51;99289.13;;;26.32;nan
8523;BME280;4299;42.202;24.736;2022-09-02T06:39:20;99281.78;;;26.47;nan
8523;BME280;4299;42.202;24.736;2022-09-02T06:41:48;99284.25;;;26.42;nan
8523;BME280;4299;42.202;24.736;2022-09-02T06:44:16;99286.84;;;26.50;nan
8523;BME280;4299;42.202;24.736;2022-09-02T06:46:46;99292.94;;;26.73;nan
8523;BME280;4299;42.202;24.736;2022-09-02T06:49:15;99293.16;;;26.93;nan
8523;BME280;4299;42.202;24.736;2022-09-02T06:51:44;99292.41;;;27.06;nan
8523;BME280;4299;42.202;24.736;2022-09-02T06:54:13;99289.78;;;26.91;nan
8523;BME280;4299;42.202;24.736;2022-09-02T06:56:41;99295.31;;;27.04;nan
8523;BME280;4299;42.202;24.736;2022-09-02T06:59:09;99296.28;;;27.18;nan
8523;BME280;4299;42.202;24.736;2022-09-02T07:01:36;99297.13;;;27.19;nan
8523;BME280;4299;42.202;24.736;2022-09-02T07:04:04;99298.00;;;27.26;nan
8523;BME280;4299;42.202;24.736;2022-09-02T07:06:52;99291.63;;;27.12;nan
8523;BME280;4299;42.202;24.736;2022-09-02T07:09:21;99297.69;;;27.35;nan
8523;BME280;4299;42.202;24.736;2022-09-02T07:11:48;99308.00;;;27.68;nan
8523;BME280;4299;42.202;24.736;2022-09-02T07:14:17;99307.38;;;28.13;nan
8523;BME280;4299;42.202;24.736;2022-09-02T07:16:46;99313.03;;;28.66;nan
8523;BME280;4299;42.202;24.736;2022-09-02T07:19:14;99325.31;;;28.90;nan
8523;BME280;4299;42.202;24.736;2022-09-02T07:21:41;99317.38;;;29.15;nan
8523;BME280;4299;42.202;24.736;2022-09-02T07:24:11;99332.06;;;29.20;nan
8523;BME280;4299;42.202;24.736;2022-09-02T07:26:39;99327.88;;;29.44;nan
8523;BME280;4299;42.202;24.736;2022-09-02T07:29:06;99336.69;;;29.46;nan
8523;BME280;4299;42.202;24.736;2022-09-02T07:31:34;99337.31;;;29.22;nan
8523;BME280;4299;42.202;24.736;2022-09-02T07:34:01;99340.44;;;29.32;nan
8523;BME280;4299;42.202;24.736;2022-09-02T07:36:29;99347.41;;;29.41;nan
8523;BME280;4299;42.202;24.736;2022-09-02T07:38:55;99342.13;;;29.20;nan
8523;BME280;4299;42.202;24.736;2022-09-02T07:41:24;99342.13;;;29.20;nan
8523;BME280;4299;42.202;24.736;2022-09-02T07:43:51;99344.22;;;29.11;nan
8523;BME280;4299;42.202;24.736;2022-09-02T07:46:18;99333.69;;;28.88;nan
8523;BME280;4299;42.202;24.736;2022-09-02T07:48:45;99337.25;;;28.82;nan
8523;BME280;4299;42.202;24.736;2022-09-02T07:51:15;99333.69;;;28.88;nan
8523;BME280;4299;42.202;24.736;2022-09-02T07:53:41;99334.31;;;28.84;nan
8523;BME280;4299;42.202;24.736;2022-09-02T07:56:10;99339.59;;;28.85;nan
8523;BME280;4299;42.202;24.736;2022-09-02T07:58:39;99323.63;;;28.82;nan
8523;BME280;4299;42.202;24.736;2022-09-02T08:01:06;99340.53;;;28.64;nan
8523;BME280;4299;42.202;24.736;2022-09-02T08:03:33;99342.56;;;28.43;nan
8523;BME280;4299;42.202;24.736;2022-09-02T08:06:00;99344.38;;;28.22;nan
8523;BME280;4299;42.202;24.736;2022-09-02T08:08:27;99338.75;;;27.96;nan
8523;BME280;4299;42.202;24.736;2022-09-02T08:10:55;99332.66;;;27.94;nan
8523;BME280;4299;42.202;24.736;2022-09-02T08:13:22;99335.88;;;28.04;nan
8523;BME280;4299;42.202;24.736;2022-09-02T08:15:50;99329.69;;;28.23;nan
8523;BME280;4299;42.202;24.736;2022-09-02T08:18:17;99327.53;;;28.12;nan
8523;BME280;4299;42.202;24.736;2022-09-02T08:20:44;99324.56;;;28.14;nan
8523;BME280;4299;42.202;24.736;2022-09-02T08:23:12;99326.66;;;28.05;nan
8523;BME280;4299;42.202;24.736;2022-09-02T08:25:39;99318.56;;;27.84;nan
8523;BME280;4299;42.202;24.736;2022-09-02T08:28:06;99321.34;;;27.63;nan
8523;BME280;4299;42.202;24.736;2022-09-02T08:30:33;99316.75;;;27.63;nan
8523;BME280;4299;42.202;24.736;2022-09-02T08:33:02;99308.72;;;27.83;nan
8523;BME280;4299;42.202;24.736;2022-09-02T08:35:29;99317.25;;;28.14;nan
8523;BME280;4299;42.202;24.736;2022-09-02T08:37:56;99310.84;;;28.28;nan
8523;BME280;4299;42.202;24.736;2022-09-02T08:40:27;99310.78;;;28.15;nan
8523;BME280;4299;42.202;24.736;2022-09-02T08:43:00;99306.44;;;27.93;nan
8523;BME280;4299;42.202;24.736;2022-09-02T08:45:31;99296.09;;;27.75;nan
8523;BME280;4299;42.202;24.736;2022-09-02T08:48:06;99286.66;;;27.78;nan
8523;BME280;4299;42.202;24.736;2022-09-02T08:50:39;99278.47;;;28.12;nan
8523;BME280;4299;42.202;24.736;2022-09-02T08:53:12;99285.75;;;28.53;nan
8523;BME280;4299;42.202;24.736;2022-09-02T08:55:44;99278.22;;;28.68;nan
8523;BME280;4299;42.202;24.736;2022-09-02T08:58:16;99300.53;;;29.18;nan
8523;BME280;4299;42.202;24.736;2022-09-02T09:00:50;99301.78;;;29.61;nan
8523;BME280;4299;42.202;24.736;2022-09-02T09:03:26;99299.69;;;29.63;nan
8523;BME280;4299;42.202;24.736;2022-09-02T09:06:00;99304.75;;;29.20;nan
8523;BME280;4299;42.202;24.736;2022-09-02T09:08:34;99304.72;;;28.87;nan
8523;BME280;4299;42.202;24.736;2022-09-02T09:11:11;99291.66;;;28.63;nan
8523;BME280;4299;42.202;24.736;2022-09-02T09:14:01;99277.91;;;28.30;nan
8523;BME280;4299;42.202;24.736;2022-09-02T09:16:37;99272.50;;;27.89;nan
8523;BME280;4299;42.202;24.736;2022-09-02T09:19:10;99268.84;;;27.69;nan
8523;BME280;4299;42.202;24.736;2022-09-02T09:21:39;99275.22;;;27.55;nan
8523;BME280;4299;42.202;24.736;2022-09-02T09:24:10;99277.13;;;27.33;nan
8523;BME280;4299;42.202;24.736;2022-09-02T09:26:43;99278.69;;;27.14;nan
8523;BME280;4299;42.202;24.736;2022-09-02T09:29:11;99286.09;;;26.99;nan
8523;BME280;4299;42.202;24.736;2022-09-02T09:31:39;99301.84;;;26.89;nan
8523;BME280;4299;42.202;24.736;2022-09-02T09:34:10;99282.81;;;26.67;nan
8523;BME280;4299;42.202;24.736;2022-09-02T09:36:49;99270.59;;;26.57;nan
8523;BME280;4299;42.202;24.736;2022-09-02T09:39:23;99258.19;;;26.33;nan
8523;BME280;4299;42.202;24.736;2022-09-02T09:41:51;99254.13;;;26.08;nan
8523;BME280;4299;42.202;24.736;2022-09-02T09:44:33;99261.06;;;25.95;nan
8523;BME280;4299;42.202;24.736;2022-09-02T09:47:03;99260.16;;;25.88;nan
8523;BME280;4299;42.202;24.736;2022-09-02T09:49:32;99254.53;;;25.75;nan
8523;BME280;4299;42.202;24.736;2022-09-02T09:51:59;99258.06;;;25.32;nan
8523;BME280;4299;42.202;24.736;2022-09-02T09:54:26;99249.44;;;25.13;nan
8523;BME280;4299;42.202;24.736;2022-09-02T09:56:54;99258.78;;;24.96;nan
8523;BME280;4299;42.202;24.736;2022-09-02T09:59:35;99256.50;;;25.00;nan
8523;BME280;4299;42.202;24.736;2022-09-02T10:02:02;99266.72;;;24.75;nan
8523;BME280;4299;42.202;24.736;2022-09-02T10:04:30;99268.75;;;24.73;nan
8523;BME280;4299;42.202;24.736;2022-09-02T10:07:00;99263.34;;;24.73;nan
8523;BME280;4299;42.202;24.736;2022-09-02T10:09:32;99268.22;;;24.55;nan
8523;BME280;4299;42.202;24.736;2022-09-02T10:12:01;99262.59;;;24.33;nan
8523;BME280;4299;42.202;24.736;2022-09-02T10:14:32;99253.75;;;24.09;nan
8523;BME280;4299;42.202;24.736;2022-09-02T10:17:08;99269.75;;;23.95;nan
8523;BME280;4299;42.202;24.736;2022-09-02T10:19:42;99270.28;;;23.83;nan
8523;BME280;4299;42.202;24.736;2022-09-02T10:25:26;99281.47;;;23.80;nan
8523;BME280;4299;42.202;24.736;2022-09-02T10:28:01;99285.88;;;23.81;nan
8523;BME280;4299;42.202;24.736;2022-09-02T10:30:34;99288.09;;;23.77;nan
8523;BME280;4299;42.202;24.736;2022-09-02T10:33:19;99280.97;;;23.76;nan
8523;BME280;4299;42.202;24.736;2022-09-02T10:35:50;99272.38;;;23.73;nan
8523;BME280;4299;42.202;24.736;2022-09-02T10:38:31;99274.72;;;23.76;nan
8523;BME280;4299;42.202;24.736;2022-09-02T10:41:08;99276.78;;;23.74;nan
8523;BME280;4299;42.202;24.736;2022-09-02T10:43:56;99261.56;;;23.73;nan
8523;BME280;4299;42.202;24.736;2022-09-02T10:46:25;99272.69;;;23.78;nan
8523;BME280;4299;42.202;24.736;2022-09-02T10:49:04;99289.13;;;24.07;nan
8523;BME280;4299;42.202;24.736;2022-09-02T10:51:40;99281.13;;;23.83;nan
8523;BME280;4299;42.202;24.736;2022-09-02T10:54:20;99281.81;;;23.77;nan
8523;BME280;4299;42.202;24.736;2022-09-02T10:56:59;99270.81;;;23.78;nan
8523;BME280;4299;42.202;24.736;2022-09-02T10:59:32;99280.50;;;23.73;nan
8523;BME280;4299;42.202;24.736;2022-09-02T11:02:07;99281.47;;;23.80;nan
8523;BME280;4299;42.202;24.736;2022-09-02T11:04:40;99269.94;;;23.86;nan
8523;BME280;4299;42.202;24.736;2022-09-02T11:07:15;99267.28;;;23.78;nan
8523;BME280;4299;42.202;24.736;2022-09-02T11:09:46;99254.03;;;23.83;nan
8523;BME280;4299;42.202;24.736;2022-09-02T11:12:19;99253.63;;;24.02;nan
8523;BME280;4299;42.202;24.736;2022-09-02T11:14:57;99261.63;;;24.26;nan
8523;BME280;4299;42.202;24.736;2022-09-02T11:17:32;99279.38;;;24.60;nan
8523;BME280;4299;42.202;24.736;2022-09-02T11:20:07;99287.19;;;25.00;nan
8523;BME280;4299;42.202;24.736;2022-09-02T11:22:42;99293.63;;;25.37;nan
8523;BME280;4299;42.202;24.736;2022-09-02T11:25:21;99297.81;;;25.77;nan
8523;BME280;4299;42.202;24.736;2022-09-02T11:27:53;99299.44;;;26.22;nan
8523;BME280;4299;42.202;24.736;2022-09-02T11:30:29;99291.50;;;26.56;nan
8523;BME280;4299;42.202;24.736;2022-09-02T11:33:12;99290.63;;;26.92;nan
8523;BME280;4299;42.202;24.736;2022-09-02T11:35:41;99297.97;;;27.19;nan
8523;BME280;4299;42.202;24.736;2022-09-02T11:38:21;99298.31;;;27.59;nan
8523;BME280;4299;42.202;24.736;2022-09-02T11:41:14;99311.91;;;27.93;nan
8523;BME280;4299;42.202;24.736;2022-09-02T11:43:52;99301.03;;;28.00;nan
8523;BME280;4299;42.202;24.736;2022-09-02T11:46:35;99324.19;;;27.76;nan
8523;BME280;4299;42.202;24.736;2022-09-02T11:49:35;99320.78;;;26.97;nan
8523;BME280;4299;42.202;24.736;2022-09-02T11:52:26;99330.38;;;26.71;nan
8523;BME280;4299;42.202;24.736;2022-09-02T11:55:05;99318.22;;;26.53;nan
8523;BME280;4299;42.202;24.736;2022-09-02T11:57:34;99323.00;;;26.29;nan
8523;BME280;4299;42.202;24.736;2022-09-02T12:00:24;99325.59;;;26.08;nan
8523;BME280;4299;42.202;24.736;2022-09-02T12:03:00;99325.41;;;25.80;nan
8523;BME280;4299;42.202;24.736;2022-09-02T12:08:56;99329.38;;;25.26;nan
8523;BME280;4299;42.202;24.736;2022-09-02T12:11:50;99321.66;;;24.92;nan
8523;BME280;4299;42.202;24.736;2022-09-02T12:17:44;99312.22;;;23.95;nan
8523;BME280;4299;42.202;24.736;2022-09-02T12:26:17;99293.09;;;23.09;nan
8523;BME280;4299;42.202;24.736;2022-09-02T12:28:45;99291.75;;;23.05;nan
8523;BME280;4299;42.202;24.736;2022-09-02T12:31:15;99279.94;;;23.06;nan
8523;BME280;4299;42.202;24.736;2022-09-02T12:33:46;99272.50;;;23.00;nan
8523;BME280;4299;42.202;24.736;2022-09-02T12:39:44;99270.09;;;22.72;nan
8523;BME280;4299;42.202;24.736;2022-09-02T12:42:20;99260.66;;;22.60;nan
8523;BME280;4299;42.202;24.736;2022-09-02T12:44:52;99269.41;;;22.46;nan
8523;BME280;4299;42.202;24.736;2022-09-02T12:47:32;99265.50;;;22.24;nan
8523;BME280;4299;42.202;24.736;2022-09-02T12:50:04;99274.06;;;22.03;nan
8523;BME280;4299;42.202;24.736;2022-09-02T12:52:42;99263.94;;;22.05;nan
8523;BME280;4299;42.202;24.736;2022-09-02T12:55:12;99256.84;;;22.04;nan
8523;BME280;4299;42.202;24.736;2022-09-02T12:57:42;99255.69;;;22.15;nan
8523;BME280;4299;42.202;24.736;2022-09-02T13:00:13;99241.72;;;22.20;nan
8523;BME280;4299;42.202;24.736;2022-09-02T13:02:53;99245.44;;;22.35;nan
8523;BME280;4299;42.202;24.736;2022-09-02T13:05:27;99242.75;;;22.35;nan
8523;BME280;4299;42.202;24.736;2022-09-02T13:08:27;99222.34;;;22.57;nan
8523;BME280;4299;42.202;24.736;2022-09-02T13:11:31;99217.44;;;22.76;nan
8523;BME280;4299;42.202;24.736;2022-09-02T13:14:22;99217.09;;;22.96;nan
8523;BME280;4299;42.202;24.736;2022-09-02T13:17:08;99208.97;;;23.04;nan
8523;BME280;4299;42.202;24.736;2022-09-02T13:19:53;99193.25;;;23.07;nan
8523;BME280;4299;42.202;24.736;2022-09-02T13:22:48;99199.09;;;23.27;nan
8523;BME280;4299;42.202;24.736;2022-09-02T13:25:35;99195.03;;;23.31;nan
8523;BME280;4299;42.202;24.736;2022-09-02T13:28:48;99198.25;;;23.26;nan
8523;BME280;4299;42.202;24.736;2022-09-02T13:31:19;99201.16;;;23.09;nan
8523;BME280;4299;42.202;24.736;2022-09-02T13:33:47;99199.16;;;23.11;nan
8523;BME280;4299;42.202;24.736;2022-09-02T13:36:23;99195.03;;;23.31;nan
8523;BME280;4299;42.202;24.736;2022-09-02T13:38:53;99201.09;;;23.41;nan
8523;BME280;4299;42.202;24.736;2022-09-02T13:41:30;99206.16;;;23.52;nan
8523;BME280;4299;42.202;24.736;2022-09-02T13:44:08;99210.19;;;23.56;nan
8523;BME280;4299;42.202;24.736;2022-09-02T13:46:46;99211.91;;;23.49;nan
8523;BME280;4299;42.202;24.736;2022-09-02T13:49:19;99214.44;;;23.43;nan
8523;BME280;4299;42.202;24.736;2022-09-02T13:51:48;99211.25;;;23.31;nan
8523;BME280;4299;42.202;24.736;2022-09-02T13:54:26;99212.78;;;23.25;nan
8523;BME280;4299;42.202;24.736;2022-09-02T13:56:53;99220.44;;;23.14;nan
8523;BME280;4299;42.202;24.736;2022-09-02T13:59:30;99219.06;;;23.26;nan
8523;BME280;4299;42.202;24.736;2022-09-02T14:02:15;99215.63;;;23.40;nan
8523;BME280;4299;42.202;24.736;2022-09-02T14:04:42;99216.66;;;23.31;nan
8523;BME280;4299;42.202;24.736;2022-09-02T14:07:08;99210.25;;;23.24;nan
8523;BME280;4299;42.202;24.736;2022-09-02T14:09:38;99208.59;;;23.23;nan